createdAt,value
2019-02-22T00:00:50.181Z,17.55
2019-02-22T00:01:55.436Z,16.93
2019-02-22T00:02:58.927Z,18.23
2019-02-22T00:04:02.516Z,16.82
2019-02-22T00:05:06.279Z,19.02
2019-02-22T00:06:09.778Z,17.35
2019-02-22T00:07:13.287Z,17.07
2019-02-22T00:08:16.719Z,18.42
2019-02-22T00:09:20.148Z,17.87
2019-02-22T00:10:23.751Z,18.40
2019-02-22T00:11:27.180Z,18.85
2019-02-22T00:12:30.746Z,17.35
2019-02-22T00:13:34.204Z,17.70
2019-02-22T00:14:37.663Z,17.95
2019-02-22T00:15:41.132Z,17.50
2019-02-22T00:16:44.656Z,18.30
2019-02-22T00:17:48.221Z,16.73
2019-02-22T00:18:51.655Z,17.52
2019-02-22T00:19:55.086Z,15.90
2019-02-22T00:20:58.541Z,17.52
2019-02-22T00:22:02.013Z,16.57
2019-02-22T00:23:05.506Z,17.77
2019-02-22T00:24:08.939Z,17.52
2019-02-22T00:25:12.441Z,17.48
2019-02-22T00:26:15.891Z,17.65
2019-02-22T00:27:19.387Z,17.30
2019-02-22T00:28:22.827Z,16.82
2019-02-22T00:29:26.338Z,16.85
2019-02-22T00:30:29.849Z,18.07
2019-02-22T00:31:33.380Z,16.65
2019-02-22T00:32:36.903Z,17.85
2019-02-22T00:33:40.343Z,16.65
2019-02-22T00:34:43.855Z,17.02
2019-02-22T00:35:47.409Z,16.87
2019-02-22T00:36:50.836Z,16.82
2019-02-22T00:37:54.277Z,17.62
2019-02-22T00:38:57.711Z,17.30
2019-02-22T00:40:01.153Z,17.42
2019-02-22T00:41:04.664Z,18.15
2019-02-22T00:42:08.120Z,19.40
2019-02-22T00:43:11.575Z,19.02
2019-02-22T00:44:15.002Z,19.05
2019-02-22T00:45:18.442Z,20.40
2019-02-22T00:46:21.942Z,20.95
2019-02-22T00:47:25.387Z,20.32
2019-02-22T00:48:28.829Z,19.77
2019-02-22T00:49:32.260Z,21.25
2019-02-22T00:50:35.689Z,21.40
2019-02-22T00:51:39.199Z,19.40
2019-02-22T00:52:42.658Z,20.15
2019-02-22T00:53:46.108Z,21.87
2019-02-22T00:54:49.605Z,20.55
2019-02-22T00:55:53.053Z,20.68
2019-02-22T00:56:56.515Z,21.52
2019-02-22T00:57:59.961Z,21.35
2019-02-22T00:59:03.398Z,22.52
2019-02-22T01:00:09.181Z,23.38
2019-02-22T01:01:12.610Z,21.12
2019-02-22T01:02:16.050Z,21.60
2019-02-22T01:03:19.573Z,23.30
2019-02-22T01:04:23.089Z,21.50
2019-02-22T01:05:26.516Z,22.05
2019-02-22T01:06:29.954Z,23.38
2019-02-22T01:07:33.403Z,23.57
2019-02-22T01:08:36.848Z,21.82
2019-02-22T01:09:40.365Z,21.48
2019-02-22T01:10:43.818Z,21.10
2019-02-22T01:11:47.265Z,23.50
2019-02-22T01:12:50.681Z,22.05
2019-02-22T01:13:54.231Z,20.80
2019-02-22T01:14:57.674Z,22.50
2019-02-22T01:16:01.103Z,23.32
2019-02-22T01:17:04.527Z,22.30
2019-02-22T01:18:08.034Z,21.73
2019-02-22T01:19:11.515Z,22.62
2019-02-22T01:20:15.022Z,22.05
2019-02-22T01:21:18.489Z,22.30
2019-02-22T01:22:21.912Z,22.25
2019-02-22T01:23:25.351Z,23.77
2019-02-22T01:24:28.876Z,21.82
2019-02-22T01:25:32.373Z,22.67
2019-02-22T01:26:35.819Z,21.97
2019-02-22T01:27:39.250Z,22.25
2019-02-22T01:28:42.669Z,22.45
2019-02-22T01:29:46.190Z,21.90
2019-02-22T01:30:49.644Z,21.77
2019-02-22T01:31:53.075Z,22.40
2019-02-22T01:32:56.516Z,22.67
2019-02-22T01:34:00.013Z,23.27
2019-02-22T01:35:03.461Z,24.55
2019-02-22T01:36:06.904Z,22.45
2019-02-22T01:37:10.405Z,21.27
2019-02-22T01:38:13.850Z,22.90
2019-02-22T01:39:17.274Z,21.85
2019-02-22T01:40:20.722Z,22.00
2019-02-22T01:41:24.155Z,21.27
2019-02-22T01:42:27.591Z,21.90
2019-02-22T01:43:33.381Z,21.33
2019-02-22T01:44:36.256Z,23.70
2019-02-22T01:45:39.702Z,20.77
2019-02-22T01:46:43.128Z,22.55
2019-02-22T01:47:46.630Z,22.95
2019-02-22T01:48:50.083Z,22.42
2019-02-22T01:49:53.545Z,23.10
2019-02-22T01:50:56.999Z,22.55
2019-02-22T01:52:00.546Z,22.22
2019-02-22T01:53:03.974Z,20.75
2019-02-22T01:54:07.410Z,21.33
2019-02-22T01:55:10.910Z,22.35
2019-02-22T01:56:14.504Z,19.95
2019-02-22T01:57:17.930Z,20.23
2019-02-22T01:58:21.435Z,20.75
2019-02-22T01:59:24.868Z,20.20
2019-02-22T02:00:28.378Z,21.95
2019-02-22T02:01:31.909Z,21.40
2019-02-22T02:02:35.339Z,19.42
2019-02-22T02:03:38.766Z,19.32
2019-02-22T02:04:42.212Z,20.75
2019-02-22T02:05:45.715Z,19.80
2019-02-22T02:06:49.232Z,20.02
2019-02-22T02:07:52.676Z,19.50
2019-02-22T02:08:56.112Z,20.40
2019-02-22T02:09:59.533Z,19.05
2019-02-22T02:11:02.959Z,20.68
2019-02-22T02:12:06.417Z,20.50
2019-02-22T02:13:09.883Z,20.37
2019-02-22T02:14:13.313Z,21.05
2019-02-22T02:15:16.761Z,20.05
2019-02-22T02:16:20.190Z,21.25
2019-02-22T02:17:23.648Z,21.82
2019-02-22T02:18:27.098Z,22.48
2019-02-22T02:19:30.530Z,21.85
2019-02-22T02:20:33.962Z,21.12
2019-02-22T02:21:37.482Z,21.20
2019-02-22T02:22:40.913Z,22.48
2019-02-22T02:23:44.430Z,22.45
2019-02-22T02:24:47.851Z,22.27
2019-02-22T02:25:51.351Z,23.05
2019-02-22T02:26:54.790Z,22.60
2019-02-22T02:27:58.235Z,21.87
2019-02-22T02:29:01.750Z,22.98
2019-02-22T02:30:07.617Z,24.30
2019-02-22T02:31:11.031Z,24.40
2019-02-22T02:32:14.473Z,25.08
2019-02-22T02:33:17.987Z,25.40
2019-02-22T02:34:21.483Z,26.90
2019-02-22T02:35:24.984Z,26.42
2019-02-22T02:36:28.434Z,26.62
2019-02-22T02:37:31.869Z,25.82
2019-02-22T02:38:35.301Z,26.25
2019-02-22T02:39:38.773Z,26.48
2019-02-22T02:40:42.191Z,25.85
2019-02-22T02:41:45.621Z,27.90
2019-02-22T02:42:49.053Z,28.17
2019-02-22T02:43:52.511Z,26.62
2019-02-22T02:44:55.944Z,27.77
2019-02-22T02:45:59.377Z,27.65
2019-02-22T02:47:02.806Z,28.85
2019-02-22T02:48:06.248Z,27.82
2019-02-22T02:49:09.704Z,27.45
2019-02-22T02:50:16.187Z,28.45
2019-02-22T02:51:19.696Z,29.92
2019-02-22T02:52:23.166Z,29.00
2019-02-22T02:53:26.604Z,27.60
2019-02-22T02:54:30.057Z,28.73
2019-02-22T02:55:34.950Z,27.65
2019-02-22T02:56:38.453Z,28.92
2019-02-22T02:57:41.894Z,29.37
2019-02-22T02:58:45.327Z,29.45
2019-02-22T02:59:48.774Z,30.62
2019-02-22T03:00:52.214Z,29.75
2019-02-22T03:01:55.718Z,29.70
2019-02-22T03:02:59.287Z,31.93
2019-02-22T03:04:02.718Z,30.32
2019-02-22T03:05:06.311Z,29.15
2019-02-22T03:06:11.402Z,29.20
2019-02-22T03:07:16.463Z,31.30
2019-02-22T03:08:20.467Z,29.15
2019-02-22T03:09:23.906Z,28.42
2019-02-22T03:10:27.398Z,27.70
2019-02-22T03:11:30.860Z,29.15
2019-02-22T03:12:34.270Z,32.10
2019-02-22T03:13:37.703Z,29.55
2019-02-22T03:14:41.139Z,30.75
2019-02-22T03:15:44.656Z,29.63
2019-02-22T03:16:48.047Z,32.10
2019-02-22T03:17:51.487Z,32.63
2019-02-22T03:18:54.945Z,32.70
2019-02-22T03:19:58.393Z,32.20
2019-02-22T03:21:01.836Z,31.48
2019-02-22T03:22:05.342Z,30.45
2019-02-22T03:23:08.779Z,33.50
2019-02-22T03:24:12.223Z,29.98
2019-02-22T03:25:15.656Z,29.82
2019-02-22T03:26:19.115Z,30.12
2019-02-22T03:27:22.635Z,30.85
2019-02-22T03:28:26.065Z,31.80
2019-02-22T03:29:29.507Z,30.57
2019-02-22T03:30:33.027Z,30.68
2019-02-22T03:31:36.560Z,32.10
2019-02-22T03:32:40.010Z,32.13
2019-02-22T03:33:43.451Z,32.23
2019-02-22T03:34:46.959Z,32.23
2019-02-22T03:35:50.388Z,31.37
2019-02-22T03:36:53.869Z,29.82
2019-02-22T03:37:57.309Z,33.35
2019-02-22T03:39:00.742Z,31.17
2019-02-22T03:40:05.910Z,32.40
2019-02-22T03:41:09.349Z,32.45
2019-02-22T03:42:12.814Z,31.25
2019-02-22T03:43:16.248Z,32.50
2019-02-22T03:44:19.688Z,33.53
2019-02-22T03:45:23.126Z,32.55
2019-02-22T03:46:26.563Z,31.97
2019-02-22T03:47:30.093Z,32.33
2019-02-22T03:48:33.533Z,30.88
2019-02-22T03:49:37.066Z,31.02
2019-02-22T03:50:40.505Z,31.97
2019-02-22T03:51:43.944Z,29.63
2019-02-22T03:52:51.529Z,31.45
2019-02-22T03:53:57.393Z,31.82
2019-02-22T03:55:00.502Z,32.00
2019-02-22T03:56:04.078Z,32.45
2019-02-22T03:57:07.642Z,29.37
2019-02-22T03:58:11.184Z,30.32
2019-02-22T03:59:14.750Z,30.43
2019-02-22T04:00:18.259Z,31.33
2019-02-22T04:01:21.819Z,30.32
2019-02-22T04:02:25.405Z,29.98
2019-02-22T04:03:28.918Z,29.55
2019-02-22T04:04:32.445Z,31.30
2019-02-22T04:05:35.879Z,29.87
2019-02-22T04:06:39.310Z,31.57
2019-02-22T04:07:42.739Z,30.92
2019-02-22T04:08:46.492Z,29.27
2019-02-22T04:09:49.921Z,30.27
2019-02-22T04:10:53.363Z,30.20
2019-02-22T04:11:56.786Z,30.00
2019-02-22T04:13:00.234Z,30.90
2019-02-22T04:14:03.692Z,32.23
2019-02-22T04:15:09.683Z,30.05
2019-02-22T04:16:13.186Z,28.35
2019-02-22T04:17:16.617Z,29.87
2019-02-22T04:18:20.136Z,30.68
2019-02-22T04:19:23.625Z,29.48
2019-02-22T04:20:27.152Z,29.90
2019-02-22T04:21:30.600Z,29.92
2019-02-22T04:22:34.095Z,30.05
2019-02-22T04:23:37.595Z,30.70
2019-02-22T04:24:41.067Z,29.65
2019-02-22T04:25:44.642Z,29.82
2019-02-22T04:26:48.079Z,30.43
2019-02-22T04:27:51.513Z,29.85
2019-02-22T04:28:54.952Z,29.45
2019-02-22T04:29:58.410Z,31.12
2019-02-22T04:31:01.839Z,29.65
2019-02-22T04:32:05.340Z,31.45
2019-02-22T04:33:08.906Z,28.40
2019-02-22T04:34:12.375Z,27.82
2019-02-22T04:35:15.785Z,28.85
2019-02-22T04:36:19.230Z,30.80
2019-02-22T04:37:22.661Z,30.50
2019-02-22T04:38:26.105Z,29.85
2019-02-22T04:39:29.536Z,29.45
2019-02-22T04:40:33.066Z,30.55
2019-02-22T04:41:36.519Z,30.57
2019-02-22T04:42:39.961Z,30.25
2019-02-22T04:43:43.387Z,29.07
2019-02-22T04:44:46.828Z,30.97
2019-02-22T04:45:50.277Z,31.70
2019-02-22T04:46:53.719Z,29.35
2019-02-22T04:47:57.281Z,31.27
2019-02-22T04:49:00.655Z,31.25
2019-02-22T04:50:04.462Z,30.02
2019-02-22T04:51:07.979Z,29.32
2019-02-22T04:52:11.508Z,29.55
2019-02-22T04:53:14.941Z,30.00
2019-02-22T04:54:18.387Z,29.63
2019-02-22T04:55:21.849Z,28.73
2019-02-22T04:56:25.338Z,30.80
2019-02-22T04:57:28.846Z,29.75
2019-02-22T04:58:32.278Z,28.83
2019-02-22T04:59:35.733Z,30.50
2019-02-22T05:00:39.182Z,31.07
2019-02-22T05:01:42.606Z,32.23
2019-02-22T05:02:46.129Z,29.95
2019-02-22T05:03:49.573Z,30.35
2019-02-22T05:04:53.081Z,30.23
2019-02-22T05:05:56.515Z,32.63
2019-02-22T05:06:59.983Z,31.90
2019-02-22T05:08:03.418Z,31.05
2019-02-22T05:09:07.000Z,30.35
2019-02-22T05:10:10.430Z,32.48
2019-02-22T05:11:13.873Z,30.00
2019-02-22T05:12:17.312Z,32.83
2019-02-22T05:13:20.746Z,31.40
2019-02-22T05:14:24.187Z,29.77
2019-02-22T05:15:27.631Z,30.70
2019-02-22T05:16:31.067Z,31.87
2019-02-22T05:17:35.719Z,32.00
2019-02-22T05:18:39.318Z,32.30
2019-02-22T05:19:42.762Z,30.68
2019-02-22T05:20:46.261Z,31.27
2019-02-22T05:21:49.719Z,32.90
2019-02-22T05:23:03.363Z,32.88
2019-02-22T05:23:58.325Z,31.33
2019-02-22T05:25:01.766Z,32.83
2019-02-22T05:26:05.353Z,34.83
2019-02-22T05:27:08.774Z,33.73
2019-02-22T05:28:12.224Z,32.10
2019-02-22T05:29:15.677Z,32.05
2019-02-22T05:30:19.181Z,32.38
2019-02-22T05:31:22.606Z,35.55
2019-02-22T05:32:26.122Z,33.70
2019-02-22T05:33:29.561Z,31.55
2019-02-22T05:34:33.011Z,33.28
2019-02-22T05:35:36.450Z,32.03
2019-02-22T05:36:39.889Z,32.00
2019-02-22T05:37:43.394Z,34.23
2019-02-22T05:38:46.843Z,33.15
2019-02-22T05:39:50.322Z,33.08
2019-02-22T05:40:53.737Z,31.68
2019-02-22T05:41:57.182Z,36.85
2019-02-22T05:43:00.623Z,35.23
2019-02-22T05:44:04.071Z,34.43
2019-02-22T05:45:07.939Z,34.00
2019-02-22T05:46:11.431Z,33.85
2019-02-22T05:47:14.875Z,34.38
2019-02-22T05:48:18.300Z,34.33
2019-02-22T05:49:22.561Z,33.90
2019-02-22T05:50:26.065Z,34.50
2019-02-22T05:51:29.573Z,33.80
2019-02-22T05:52:33.104Z,33.25
2019-02-22T05:53:36.551Z,32.45
2019-02-22T05:54:40.045Z,33.50
2019-02-22T05:55:44.426Z,33.28
2019-02-22T05:56:47.963Z,33.85
2019-02-22T05:57:51.387Z,34.65
2019-02-22T05:58:54.818Z,34.38
2019-02-22T05:59:58.292Z,33.98
2019-02-22T06:01:01.743Z,34.13
2019-02-22T06:02:05.363Z,34.20
2019-02-22T06:03:08.895Z,35.40
2019-02-22T06:04:12.352Z,34.70
2019-02-22T06:05:15.845Z,34.40
2019-02-22T06:06:19.384Z,36.45
2019-02-22T06:07:22.923Z,33.13
2019-02-22T06:08:26.506Z,32.65
2019-02-22T06:09:29.951Z,33.75
2019-02-22T06:10:33.491Z,34.40
2019-02-22T06:11:36.928Z,36.33
2019-02-22T06:12:40.516Z,35.40
2019-02-22T06:13:43.978Z,34.80
2019-02-22T06:14:47.414Z,33.42
2019-02-22T06:15:50.858Z,36.28
2019-02-22T06:16:54.298Z,35.58
2019-02-22T06:17:57.727Z,34.13
2019-02-22T06:19:01.235Z,36.33
2019-02-22T06:20:07.382Z,35.38
2019-02-22T06:21:10.896Z,36.30
2019-02-22T06:22:14.358Z,34.70
2019-02-22T06:23:17.781Z,34.23
2019-02-22T06:24:21.229Z,37.25
2019-02-22T06:25:24.664Z,37.83
2019-02-22T06:26:30.391Z,35.73
2019-02-22T06:27:33.385Z,37.15
2019-02-22T06:28:36.889Z,36.75
2019-02-22T06:29:40.335Z,35.63
2019-02-22T06:30:43.833Z,37.88
2019-02-22T06:31:47.381Z,35.98
2019-02-22T06:32:50.852Z,37.93
2019-02-22T06:33:54.296Z,37.85
2019-02-22T06:34:57.737Z,36.80
2019-02-22T06:36:01.208Z,38.00
2019-02-22T06:37:04.787Z,39.10
2019-02-22T06:38:08.254Z,36.73
2019-02-22T06:39:11.764Z,36.70
2019-02-22T06:40:15.196Z,36.00
2019-02-22T06:41:18.632Z,38.48
2019-02-22T06:42:22.171Z,37.53
2019-02-22T06:43:25.624Z,38.05
2019-02-22T06:44:29.068Z,37.55
2019-02-22T06:45:32.499Z,40.17
2019-02-22T06:46:35.930Z,38.40
2019-02-22T06:47:39.387Z,38.70
2019-02-22T06:48:42.851Z,37.83
2019-02-22T06:49:46.290Z,38.80
2019-02-22T06:50:49.733Z,39.08
2019-02-22T06:51:53.158Z,40.85
2019-02-22T06:52:56.615Z,39.53
2019-02-22T06:54:00.079Z,40.00
2019-02-22T06:55:04.059Z,40.60
2019-02-22T06:56:07.625Z,41.02
2019-02-22T06:57:11.058Z,38.95
2019-02-22T06:58:14.606Z,40.90
2019-02-22T06:59:18.051Z,41.02
2019-02-22T07:00:21.535Z,38.75
2019-02-22T07:01:24.947Z,39.23
2019-02-22T07:02:28.380Z,37.93
2019-02-22T07:03:31.835Z,39.45
2019-02-22T07:04:35.272Z,38.83
2019-02-22T07:05:38.709Z,40.20
2019-02-22T07:06:42.195Z,39.40
2019-02-22T07:07:45.689Z,41.20
2019-02-22T07:08:49.157Z,41.35
2019-02-22T07:09:52.668Z,38.88
2019-02-22T07:10:57.874Z,38.02
2019-02-22T07:12:05.719Z,37.85
2019-02-22T07:13:09.149Z,40.15
2019-02-22T07:14:12.608Z,42.85
2019-02-22T07:15:16.045Z,42.30
2019-02-22T07:16:19.560Z,41.70
2019-02-22T07:17:23.003Z,40.78
2019-02-22T07:18:26.439Z,39.05
2019-02-22T07:19:29.894Z,38.17
2019-02-22T07:20:33.347Z,39.78
2019-02-22T07:21:51.657Z,36.98
2019-02-22T07:22:42.008Z,37.15
2019-02-22T07:23:45.434Z,38.33
2019-02-22T07:24:48.893Z,37.13
2019-02-22T07:25:52.322Z,38.80
2019-02-22T07:26:55.771Z,37.58
2019-02-22T07:27:59.246Z,37.48
2019-02-22T07:29:02.648Z,37.00
2019-02-22T07:30:09.138Z,37.83
2019-02-22T07:31:12.593Z,36.93
2019-02-22T07:32:16.037Z,35.13
2019-02-22T07:33:19.538Z,37.80
2019-02-22T07:34:23.054Z,34.40
2019-02-22T07:35:26.529Z,37.67
2019-02-22T07:36:30.039Z,37.33
2019-02-22T07:37:33.501Z,35.45
2019-02-22T07:38:36.918Z,37.33
2019-02-22T07:39:40.346Z,36.98
2019-02-22T07:40:43.807Z,37.20
2019-02-22T07:41:47.323Z,38.80
2019-02-22T07:42:50.769Z,36.17
2019-02-22T07:43:54.211Z,37.25
2019-02-22T07:44:57.641Z,36.60
2019-02-22T07:46:01.100Z,36.88
2019-02-22T07:47:04.618Z,37.00
2019-02-22T07:48:08.067Z,34.48
2019-02-22T07:49:11.497Z,35.88
2019-02-22T07:50:15.063Z,37.67
2019-02-22T07:51:18.453Z,35.55
2019-02-22T07:52:21.887Z,37.90
2019-02-22T07:53:25.317Z,39.33
2019-02-22T07:54:28.751Z,35.95
2019-02-22T07:55:32.192Z,36.77
2019-02-22T07:56:35.702Z,36.95
2019-02-22T07:57:40.121Z,37.65
2019-02-22T07:58:43.766Z,38.02
2019-02-22T07:59:47.222Z,35.65
2019-02-22T08:00:50.705Z,37.40
2019-02-22T08:01:54.300Z,36.75
2019-02-22T08:02:57.731Z,36.77
2019-02-22T08:04:01.173Z,36.55
2019-02-22T08:05:05.153Z,35.00
2019-02-22T08:06:08.600Z,37.35
2019-02-22T08:07:12.155Z,36.80
2019-02-22T08:08:15.591Z,37.20
2019-02-22T08:09:19.027Z,37.30
2019-02-22T08:10:22.526Z,36.58
2019-02-22T08:11:25.960Z,36.58
2019-02-22T08:12:29.411Z,36.77
2019-02-22T08:13:32.883Z,36.00
2019-02-22T08:14:36.365Z,36.68
2019-02-22T08:15:39.879Z,35.33
2019-02-22T08:16:43.392Z,37.13
2019-02-22T08:17:47.060Z,37.15
2019-02-22T08:19:01.199Z,36.83
2019-02-22T08:19:55.606Z,36.38
2019-02-22T08:20:59.044Z,36.10
2019-02-22T08:22:03.526Z,37.38
2019-02-22T08:23:07.151Z,38.02
2019-02-22T08:24:10.593Z,37.55
2019-02-22T08:25:14.107Z,36.03
2019-02-22T08:26:17.538Z,35.45
2019-02-22T08:27:20.976Z,37.55
2019-02-22T08:28:24.432Z,37.73
2019-02-22T08:29:27.864Z,36.48
2019-02-22T08:30:31.373Z,37.53
2019-02-22T08:31:34.813Z,37.80
2019-02-22T08:32:38.338Z,37.08
2019-02-22T08:33:41.784Z,37.53
2019-02-22T08:34:45.978Z,36.88
2019-02-22T08:35:49.532Z,38.10
2019-02-22T08:36:52.963Z,40.50
2019-02-22T08:37:56.471Z,36.60
2019-02-22T08:38:59.925Z,36.63
2019-02-22T08:40:03.709Z,37.85
2019-02-22T08:41:07.169Z,36.08
2019-02-22T08:42:10.589Z,38.10
2019-02-22T08:43:14.167Z,35.00
2019-02-22T08:44:17.624Z,36.38
2019-02-22T08:45:21.139Z,36.42
2019-02-22T08:46:24.566Z,37.60
2019-02-22T08:47:28.002Z,35.92
2019-02-22T08:48:31.440Z,36.17
2019-02-22T08:49:34.900Z,46.90
2019-02-22T08:50:38.613Z,37.23
2019-02-22T08:51:42.046Z,36.68
2019-02-22T08:52:45.602Z,36.63
2019-02-22T08:53:48.984Z,36.38
2019-02-22T08:54:52.515Z,34.33
2019-02-22T08:55:55.950Z,37.58
2019-02-22T08:56:59.390Z,36.05
2019-02-22T08:58:02.888Z,34.75
2019-02-22T08:59:06.340Z,35.50
2019-02-22T09:00:12.284Z,34.92
2019-02-22T09:01:20.016Z,36.10
2019-02-22T09:02:23.445Z,36.77
2019-02-22T09:03:26.888Z,35.50
2019-02-22T09:04:30.308Z,36.98
2019-02-22T09:05:33.835Z,37.50
2019-02-22T09:06:37.325Z,35.03
2019-02-22T09:07:40.767Z,36.93
2019-02-22T09:08:44.348Z,37.23
2019-02-22T09:09:48.068Z,36.45
2019-02-22T09:11:00.131Z,36.35
2019-02-22T09:11:57.763Z,39.13
2019-02-22T09:13:01.267Z,38.33
2019-02-22T09:14:04.692Z,39.30
2019-02-22T09:15:09.765Z,37.05
2019-02-22T09:16:13.253Z,38.30
2019-02-22T09:17:16.740Z,37.67
2019-02-22T09:18:20.198Z,39.75
2019-02-22T09:19:23.685Z,37.78
2019-02-22T09:20:27.127Z,39.25
2019-02-22T09:21:30.595Z,39.50
2019-02-22T09:22:34.043Z,39.45
2019-02-22T09:23:37.490Z,36.53
2019-02-22T09:24:40.934Z,42.33
2019-02-22T09:25:44.526Z,41.77
2019-02-22T09:26:48.155Z,37.70
2019-02-22T09:27:51.606Z,38.92
2019-02-22T09:28:55.633Z,38.70
2019-02-22T09:29:59.336Z,39.50
2019-02-22T09:31:02.901Z,41.05
2019-02-22T09:32:06.509Z,39.18
2019-02-22T09:33:09.970Z,39.53
2019-02-22T09:34:13.404Z,41.98
2019-02-22T09:35:16.841Z,40.88
2019-02-22T09:36:20.276Z,39.80
2019-02-22T09:37:23.806Z,40.50
2019-02-22T09:38:27.244Z,39.42
2019-02-22T09:39:30.679Z,39.00
2019-02-22T09:40:34.171Z,41.00
2019-02-22T09:41:37.606Z,40.90
2019-02-22T09:42:41.064Z,39.53
2019-02-22T09:43:54.641Z,39.70
2019-02-22T09:44:49.718Z,40.58
2019-02-22T09:45:53.218Z,39.65
2019-02-22T09:46:56.655Z,41.10
2019-02-22T09:48:00.164Z,41.90
2019-02-22T09:49:03.789Z,39.50
2019-02-22T09:50:10.152Z,39.70
2019-02-22T09:51:13.589Z,39.73
2019-02-22T09:52:17.034Z,39.90
2019-02-22T09:53:20.489Z,42.58
2019-02-22T09:54:23.933Z,42.17
2019-02-22T09:55:27.367Z,41.30
2019-02-22T09:56:30.885Z,41.15
2019-02-22T09:57:34.315Z,41.90
2019-02-22T09:58:37.758Z,40.95
2019-02-22T09:59:41.314Z,41.88
2019-02-22T10:00:44.952Z,37.10
2019-02-22T10:01:48.428Z,38.63
2019-02-22T10:02:51.864Z,40.05
2019-02-22T10:03:55.573Z,40.33
2019-02-22T10:04:59.318Z,40.25
2019-02-22T10:06:03.086Z,40.20
2019-02-22T10:07:06.774Z,39.75
2019-02-22T10:08:10.324Z,40.88
2019-02-22T10:09:14.241Z,37.83
2019-02-22T10:10:17.781Z,40.55
2019-02-22T10:11:21.233Z,40.65
2019-02-22T10:12:24.674Z,39.73
2019-02-22T10:13:28.157Z,36.45
2019-02-22T10:14:31.750Z,35.95
2019-02-22T10:15:35.214Z,38.63
2019-02-22T10:16:38.821Z,38.78
2019-02-22T10:17:42.311Z,38.42
2019-02-22T10:18:45.848Z,37.60
2019-02-22T10:19:49.299Z,39.80
2019-02-22T10:20:53.186Z,38.35
2019-02-22T10:21:57.614Z,39.00
2019-02-22T10:23:01.336Z,39.45
2019-02-22T10:24:04.875Z,36.90
2019-02-22T10:25:08.765Z,37.70
2019-02-22T10:26:12.269Z,37.30
2019-02-22T10:27:15.790Z,41.40
2019-02-22T10:28:19.295Z,36.90
2019-02-22T10:29:22.798Z,40.25
2019-02-22T10:30:26.402Z,36.30
2019-02-22T10:31:29.992Z,37.05
2019-02-22T10:32:33.636Z,37.23
2019-02-22T10:33:37.136Z,37.70
2019-02-22T10:34:40.585Z,38.75
2019-02-22T10:35:44.039Z,36.65
2019-02-22T10:36:47.566Z,37.10
2019-02-22T10:37:51.021Z,38.17
2019-02-22T10:38:54.652Z,37.08
2019-02-22T10:39:58.094Z,36.42
2019-02-22T10:41:01.838Z,35.95
2019-02-22T10:42:05.354Z,36.38
2019-02-22T10:43:08.979Z,34.05
2019-02-22T10:44:17.678Z,36.83
2019-02-22T10:45:17.776Z,36.05
2019-02-22T10:46:22.342Z,37.40
2019-02-22T10:47:26.123Z,35.40
2019-02-22T10:48:29.656Z,36.25
2019-02-22T10:49:33.175Z,35.15
2019-02-22T10:50:36.637Z,35.25
2019-02-22T10:51:40.262Z,35.80
2019-02-22T10:52:43.913Z,36.20
2019-02-22T10:53:47.479Z,34.80
2019-02-22T10:54:51.026Z,35.85
2019-02-22T10:55:54.494Z,37.58
2019-02-22T10:56:57.924Z,35.25
2019-02-22T10:58:01.587Z,35.63
2019-02-22T10:59:05.111Z,35.83
2019-02-22T11:00:15.224Z,36.33
2019-02-22T11:01:18.686Z,34.35
2019-02-22T11:02:22.177Z,34.60
2019-02-22T11:03:25.675Z,33.60
2019-02-22T11:04:29.180Z,35.28
2019-02-22T11:05:32.901Z,35.30
2019-02-22T11:06:36.377Z,36.05
2019-02-22T11:07:40.046Z,35.83
2019-02-22T11:08:43.550Z,35.45
2019-02-22T11:09:47.144Z,34.83
2019-02-22T11:10:50.811Z,35.05
2019-02-22T11:11:54.375Z,35.05
2019-02-22T11:12:57.838Z,33.75
2019-02-22T11:14:01.646Z,32.63
2019-02-22T11:15:08.170Z,32.42
2019-02-22T11:16:11.777Z,32.15
2019-02-22T11:17:15.434Z,33.53
2019-02-22T11:18:18.957Z,34.13
2019-02-22T11:19:22.588Z,32.25
2019-02-22T11:20:26.051Z,34.75
2019-02-22T11:21:29.637Z,32.20
2019-02-22T11:22:33.079Z,34.20
2019-02-22T11:23:36.543Z,33.38
2019-02-22T11:24:40.036Z,31.77
2019-02-22T11:25:43.665Z,33.05
2019-02-22T11:26:47.257Z,33.42
2019-02-22T11:27:50.694Z,36.03
2019-02-22T11:28:54.235Z,32.75
2019-02-22T11:29:57.752Z,34.13
2019-02-22T11:31:01.416Z,34.80
2019-02-22T11:32:04.998Z,34.18
2019-02-22T11:33:08.525Z,34.15
2019-02-22T11:34:12.274Z,33.53
2019-02-22T11:35:15.882Z,32.98
2019-02-22T11:36:19.540Z,34.15
2019-02-22T11:37:23.217Z,38.78
2019-02-22T11:38:27.040Z,37.08
2019-02-22T11:39:30.710Z,33.48
2019-02-22T11:40:34.206Z,32.95
2019-02-22T11:41:37.651Z,32.70
2019-02-22T11:42:41.134Z,33.20
2019-02-22T11:43:44.643Z,33.80
2019-02-22T11:44:48.302Z,33.33
2019-02-22T11:45:53.352Z,32.78
2019-02-22T11:46:57.173Z,31.12
2019-02-22T11:48:08.799Z,31.60
2019-02-22T11:49:06.517Z,32.25
2019-02-22T11:50:11.286Z,32.30
2019-02-22T11:51:15.301Z,34.05
2019-02-22T11:52:19.108Z,33.35
2019-02-22T11:53:22.712Z,36.93
2019-02-22T11:54:26.382Z,34.50
2019-02-22T11:55:30.007Z,31.48
2019-02-22T11:56:33.549Z,32.67
2019-02-22T11:57:37.212Z,30.05
2019-02-22T11:58:41.940Z,33.88
2019-02-22T11:59:45.349Z,29.02
2019-02-22T12:00:49.077Z,31.07
2019-02-22T12:01:53.039Z,28.45
2019-02-22T12:02:57.122Z,28.35
2019-02-22T12:04:00.631Z,28.25
2019-02-22T12:05:04.680Z,30.48
2019-02-22T12:06:08.374Z,28.42
2019-02-22T12:07:11.847Z,27.85
2019-02-22T12:08:15.279Z,27.20
2019-02-22T12:09:18.739Z,28.12
2019-02-22T12:10:22.211Z,26.73
2019-02-22T12:11:25.760Z,27.07
2019-02-22T12:12:29.411Z,26.87
2019-02-22T12:13:32.876Z,27.75
2019-02-22T12:14:36.561Z,27.48
2019-02-22T12:15:40.175Z,27.50
2019-02-22T12:16:43.613Z,27.15
2019-02-22T12:17:47.149Z,28.27
2019-02-22T12:18:50.613Z,26.45
2019-02-22T12:19:54.208Z,26.30
2019-02-22T12:20:57.871Z,27.70
2019-02-22T12:22:01.430Z,27.00
2019-02-22T12:23:05.100Z,28.15
2019-02-22T12:24:08.536Z,24.10
2019-02-22T12:25:13.126Z,25.75
2019-02-22T12:26:16.652Z,25.20
2019-02-22T12:27:20.080Z,26.48
2019-02-22T12:28:23.565Z,26.52
2019-02-22T12:29:27.005Z,25.15
2019-02-22T12:30:30.642Z,25.10
2019-02-22T12:31:34.441Z,24.40
2019-02-22T12:32:39.599Z,26.85
2019-02-22T12:33:43.094Z,24.10
2019-02-22T12:34:46.831Z,24.75
2019-02-22T12:35:50.228Z,27.00
2019-02-22T12:36:53.979Z,26.27
2019-02-22T12:37:57.503Z,24.32
2019-02-22T12:39:01.038Z,23.80
2019-02-22T12:40:06.895Z,24.05
2019-02-22T12:41:10.699Z,24.82
2019-02-22T12:42:14.256Z,26.87
2019-02-22T12:43:17.704Z,22.85
2019-02-22T12:44:21.172Z,25.02
2019-02-22T12:45:24.678Z,25.08
2019-02-22T12:46:28.239Z,25.20
2019-02-22T12:47:31.696Z,24.85
2019-02-22T12:48:35.283Z,23.07
2019-02-22T12:49:40.276Z,25.12
2019-02-22T12:50:43.843Z,22.98
2019-02-22T12:51:47.316Z,22.13
2019-02-22T12:52:50.843Z,23.25
2019-02-22T12:53:54.293Z,22.85
2019-02-22T12:54:57.831Z,23.75
2019-02-22T12:56:01.265Z,24.12
2019-02-22T12:57:04.720Z,22.95
2019-02-22T12:58:08.158Z,23.70
2019-02-22T12:59:11.590Z,22.60
2019-02-22T13:00:19.656Z,20.65
2019-02-22T13:01:24.608Z,21.77
2019-02-22T13:02:28.154Z,22.67
2019-02-22T13:03:31.779Z,23.80
2019-02-22T13:04:35.215Z,22.95
2019-02-22T13:05:38.655Z,21.95
2019-02-22T13:06:42.096Z,24.02
2019-02-22T13:07:45.599Z,22.87
2019-02-22T13:08:49.050Z,23.42
2019-02-22T13:09:52.473Z,25.15
2019-02-22T13:10:55.931Z,24.20
2019-02-22T13:11:59.386Z,23.85
2019-02-22T13:13:02.970Z,23.85
2019-02-22T13:14:06.565Z,23.55
2019-02-22T13:15:14.312Z,22.73
2019-02-22T13:16:17.065Z,23.40
2019-02-22T13:17:30.444Z,23.55
2019-02-22T13:18:25.757Z,22.75
2019-02-22T13:19:29.252Z,21.80
2019-02-22T13:20:32.743Z,21.85
2019-02-22T13:21:36.265Z,22.62
2019-02-22T13:22:39.717Z,23.73
2019-02-22T13:23:43.251Z,23.80
2019-02-22T13:24:46.727Z,22.00
2019-02-22T13:25:50.193Z,22.90
2019-02-22T13:26:53.621Z,23.22
2019-02-22T13:27:57.154Z,23.77
2019-02-22T13:29:00.762Z,22.45
2019-02-22T13:30:06.838Z,22.77
2019-02-22T13:31:10.567Z,20.77
2019-02-22T13:32:14.028Z,22.95
2019-02-22T13:33:17.519Z,20.85
2019-02-22T13:34:21.054Z,22.27
2019-02-22T13:35:24.505Z,22.65
2019-02-22T13:36:28.047Z,22.07
2019-02-22T13:37:31.553Z,20.65
2019-02-22T13:38:34.998Z,22.45
2019-02-22T13:39:38.463Z,21.70